sensor_id;sensor_type;location;lat;lon;timestamp;temperature;humidity
11846;DHT22;5982;37.494;-8.758;2022-11-06T00:01:09;12.70;99.90
11846;DHT22;5982;37.494;-8.758;2022-11-06T00:03:38;12.80;99.90
11846;DHT22;5982;37.494;-8.758;2022-11-06T00:06:06;12.90;99.90
11846;DHT22;5982;37.494;-8.758;2022-11-06T00:08:52;12.90;99.90
11846;DHT22;5982;37.494;-8.758;2022-11-06T00:11:21;12.90;99.90
11846;DHT22;5982;37.494;-8.758;2022-11-06T00:13:49;12.90;99.90
11846;DHT22;5982;37.494;-8.758;2022-11-06T00:16:17;12.90;99.90
11846;DHT22;5982;37.494;-8.758;2022-11-06T00:18:45;12.90;99.90
11846;DHT22;5982;37.494;-8.758;2022-11-06T00:21:14;12.80;99.90
11846;DHT22;5982;37.494;-8.758;2022-11-06T00:23:44;12.70;99.90
11846;DHT22;5982;37.494;-8.758;2022-11-06T00:26:13;12.70;99.90
11846;DHT22;5982;37.494;-8.758;2022-11-06T00:28:44;12.70;99.90
11846;DHT22;5982;37.494;-8.758;2022-11-06T00:31:14;12.60;99.90
11846;DHT22;5982;37.494;-8.758;2022-11-06T00:33:44;12.60;99.90
11846;DHT22;5982;37.494;-8.758;2022-11-06T00:36:13;12.60;99.90
11846;DHT22;5982;37.494;-8.758;2022-11-06T00:38:42;12.70;99.90
11846;DHT22;5982;37.494;-8.758;2022-11-06T00:41:10;12.70;99.90
11846;DHT22;5982;37.494;-8.758;2022-11-06T00:43:38;12.70;99.90
11846;DHT22;5982;37.494;-8.758;2022-11-06T00:46:08;12.70;99.90
11846;DHT22;5982;37.494;-8.758;2022-11-06T00:48:37;12.80;99.90
11846;DHT22;5982;37.494;-8.758;2022-11-06T00:51:07;12.80;99.90
11846;DHT22;5982;37.494;-8.758;2022-11-06T00:53:36;12.70;99.90
11846;DHT22;5982;37.494;-8.758;2022-11-06T00:56:05;12.70;99.90
11846;DHT22;5982;37.494;-8.758;2022-11-06T00:58:33;12.80;99.90
11846;DHT22;5982;37.494;-8.758;2022-11-06T01:01:08;12.70;99.90
11846;DHT22;5982;37.494;-8.758;2022-11-06T01:03:37;12.70;99.90
11846;DHT22;5982;37.494;-8.758;2022-11-06T01:06:06;12.70;99.90
11846;DHT22;5982;37.494;-8.758;2022-11-06T01:08:36;12.70;99.90
11846;DHT22;5982;37.494;-8.758;2022-11-06T01:11:05;12.80;99.90
11846;DHT22;5982;37.494;-8.758;2022-11-06T01:13:33;12.90;99.90
11846;DHT22;5982;37.494;-8.758;2022-11-06T01:16:03;12.80;99.90
11846;DHT22;5982;37.494;-8.758;2022-11-06T01:18:34;12.90;99.90
11846;DHT22;5982;37.494;-8.758;2022-11-06T01:21:03;12.90;99.90
11846;DHT22;5982;37.494;-8.758;2022-11-06T01:23:31;12.80;99.90
11846;DHT22;5982;37.494;-8.758;2022-11-06T01:26:00;12.80;99.90
11846;DHT22;5982;37.494;-8.758;2022-11-06T01:28:31;12.80;99.90
11846;DHT22;5982;37.494;-8.758;2022-11-06T01:31:01;12.80;99.90
11846;DHT22;5982;37.494;-8.758;2022-11-06T01:33:29;12.80;99.90
11846;DHT22;5982;37.494;-8.758;2022-11-06T01:35:58;12.70;99.90
11846;DHT22;5982;37.494;-8.758;2022-11-06T01:38:26;12.70;99.90
11846;DHT22;5982;37.494;-8.758;2022-11-06T01:40:55;12.70;99.90
11846;DHT22;5982;37.494;-8.758;2022-11-06T01:43:23;12.70;99.90
11846;DHT22;5982;37.494;-8.758;2022-11-06T01:45:53;12.70;99.90
11846;DHT22;5982;37.494;-8.758;2022-11-06T01:48:22;12.70;99.90
11846;DHT22;5982;37.494;-8.758;2022-11-06T01:50:52;12.70;99.90
11846;DHT22;5982;37.494;-8.758;2022-11-06T01:53:24;12.60;99.90
11846;DHT22;5982;37.494;-8.758;2022-11-06T01:55:53;12.60;99.90
11846;DHT22;5982;37.494;-8.758;2022-11-06T01:58:24;12.60;99.90
11846;DHT22;5982;37.494;-8.758;2022-11-06T02:00:53;12.60;99.90
11846;DHT22;5982;37.494;-8.758;2022-11-06T02:03:20;12.60;99.90
11846;DHT22;5982;37.494;-8.758;2022-11-06T02:05:48;12.50;99.90
11846;DHT22;5982;37.494;-8.758;2022-11-06T02:08:17;12.40;99.90
11846;DHT22;5982;37.494;-8.758;2022-11-06T02:10:47;12.40;99.90
11846;DHT22;5982;37.494;-8.758;2022-11-06T02:13:18;12.30;99.90
11846;DHT22;5982;37.494;-8.758;2022-11-06T02:16:01;12.10;99.90
11846;DHT22;5982;37.494;-8.758;2022-11-06T02:18:38;12.00;99.90
11846;DHT22;5982;37.494;-8.758;2022-11-06T02:21:39;11.90;99.90
11846;DHT22;5982;37.494;-8.758;2022-11-06T02:24:40;11.80;99.90
11846;DHT22;5982;37.494;-8.758;2022-11-06T02:27:24;11.80;99.90
11846;DHT22;5982;37.494;-8.758;2022-11-06T02:29:55;11.80;99.90
11846;DHT22;5982;37.494;-8.758;2022-11-06T02:32:26;11.80;99.90
11846;DHT22;5982;37.494;-8.758;2022-11-06T02:34:59;11.70;99.90
11846;DHT22;5982;37.494;-8.758;2022-11-06T02:37:29;11.70;99.90
11846;DHT22;5982;37.494;-8.758;2022-11-06T02:40:02;11.70;99.90
11846;DHT22;5982;37.494;-8.758;2022-11-06T02:42:34;11.60;99.90
11846;DHT22;5982;37.494;-8.758;2022-11-06T02:45:05;11.60;99.90
11846;DHT22;5982;37.494;-8.758;2022-11-06T02:47:34;11.50;99.90
11846;DHT22;5982;37.494;-8.758;2022-11-06T02:50:03;11.40;99.90
11846;DHT22;5982;37.494;-8.758;2022-11-06T02:52:34;11.40;99.90
11846;DHT22;5982;37.494;-8.758;2022-11-06T02:55:08;11.30;99.90
11846;DHT22;5982;37.494;-8.758;2022-11-06T02:57:42;11.30;99.90
11846;DHT22;5982;37.494;-8.758;2022-11-06T03:00:14;11.30;99.90
11846;DHT22;5982;37.494;-8.758;2022-11-06T03:02:47;11.20;99.90
11846;DHT22;5982;37.494;-8.758;2022-11-06T03:05:20;11.20;99.90
11846;DHT22;5982;37.494;-8.758;2022-11-06T03:07:54;11.20;99.90
11846;DHT22;5982;37.494;-8.758;2022-11-06T03:10:29;11.30;99.90
11846;DHT22;5982;37.494;-8.758;2022-11-06T03:13:07;11.30;99.90
11846;DHT22;5982;37.494;-8.758;2022-11-06T03:15:46;11.30;99.90
11846;DHT22;5982;37.494;-8.758;2022-11-06T03:18:26;11.20;99.90
11846;DHT22;5982;37.494;-8.758;2022-11-06T03:21:02;11.20;99.90
11846;DHT22;5982;37.494;-8.758;2022-11-06T03:23:36;11.20;99.90
11846;DHT22;5982;37.494;-8.758;2022-11-06T03:26:12;11.20;99.90
11846;DHT22;5982;37.494;-8.758;2022-11-06T03:28:50;11.20;99.90
11846;DHT22;5982;37.494;-8.758;2022-11-06T03:31:26;11.30;99.90
11846;DHT22;5982;37.494;-8.758;2022-11-06T03:33:58;11.30;99.90
11846;DHT22;5982;37.494;-8.758;2022-11-06T03:36:31;11.20;99.90
11846;DHT22;5982;37.494;-8.758;2022-11-06T03:39:03;11.20;99.90
11846;DHT22;5982;37.494;-8.758;2022-11-06T03:41:38;11.20;99.90
11846;DHT22;5982;37.494;-8.758;2022-11-06T03:44:18;11.20;99.90
11846;DHT22;5982;37.494;-8.758;2022-11-06T03:46:52;11.20;99.90
11846;DHT22;5982;37.494;-8.758;2022-11-06T03:49:26;11.30;99.90
11846;DHT22;5982;37.494;-8.758;2022-11-06T03:52:02;11.30;99.90
11846;DHT22;5982;37.494;-8.758;2022-11-06T03:54:37;11.20;99.90
11846;DHT22;5982;37.494;-8.758;2022-11-06T03:57:10;11.30;99.90
11846;DHT22;5982;37.494;-8.758;2022-11-06T03:59:45;11.30;99.90
11846;DHT22;5982;37.494;-8.758;2022-11-06T04:02:15;11.10;99.90
11846;DHT22;5982;37.494;-8.758;2022-11-06T04:04:48;11.10;99.90
11846;DHT22;5982;37.494;-8.758;2022-11-06T04:07:20;10.90;99.90
11846;DHT22;5982;37.494;-8.758;2022-11-06T04:09:52;10.80;99.90
11846;DHT22;5982;37.494;-8.758;2022-11-06T04:12:41;10.80;99.90
11846;DHT22;5982;37.494;-8.758;2022-11-06T04:15:25;10.70;99.90
11846;DHT22;5982;37.494;-8.758;2022-11-06T04:17:54;10.60;99.90
11846;DHT22;5982;37.494;-8.758;2022-11-06T04:20:23;10.70;99.90
11846;DHT22;5982;37.494;-8.758;2022-11-06T04:23:24;10.70;99.90
11846;DHT22;5982;37.494;-8.758;2022-11-06T04:26:05;10.70;99.90
11846;DHT22;5982;37.494;-8.758;2022-11-06T04:29:02;10.70;99.90
11846;DHT22;5982;37.494;-8.758;2022-11-06T04:31:41;10.90;99.90
11846;DHT22;5982;37.494;-8.758;2022-11-06T04:34:16;11.00;99.90
11846;DHT22;5982;37.494;-8.758;2022-11-06T04:36:52;10.90;99.90
11846;DHT22;5982;37.494;-8.758;2022-11-06T04:39:28;10.90;99.90
11846;DHT22;5982;37.494;-8.758;2022-11-06T04:42:04;11.00;99.90
11846;DHT22;5982;37.494;-8.758;2022-11-06T04:44:38;11.00;99.90
11846;DHT22;5982;37.494;-8.758;2022-11-06T04:47:13;11.10;99.90
11846;DHT22;5982;37.494;-8.758;2022-11-06T04:49:44;11.10;99.90
11846;DHT22;5982;37.494;-8.758;2022-11-06T04:52:15;11.00;99.90
11846;DHT22;5982;37.494;-8.758;2022-11-06T04:54:46;11.00;99.90
11846;DHT22;5982;37.494;-8.758;2022-11-06T04:57:14;11.10;99.90
11846;DHT22;5982;37.494;-8.758;2022-11-06T04:59:43;11.20;99.90
11846;DHT22;5982;37.494;-8.758;2022-11-06T05:02:12;11.30;99.90
11846;DHT22;5982;37.494;-8.758;2022-11-06T05:04:41;11.30;99.90
11846;DHT22;5982;37.494;-8.758;2022-11-06T05:07:12;11.30;99.90
11846;DHT22;5982;37.494;-8.758;2022-11-06T05:09:41;11.40;99.90
11846;DHT22;5982;37.494;-8.758;2022-11-06T05:12:10;11.40;99.90
11846;DHT22;5982;37.494;-8.758;2022-11-06T05:14:39;11.50;99.90
11846;DHT22;5982;37.494;-8.758;2022-11-06T05:17:07;11.50;99.90
11846;DHT22;5982;37.494;-8.758;2022-11-06T05:19:37;11.40;99.90
11846;DHT22;5982;37.494;-8.758;2022-11-06T05:22:05;11.40;99.90
11846;DHT22;5982;37.494;-8.758;2022-11-06T05:24:50;11.50;99.90
11846;DHT22;5982;37.494;-8.758;2022-11-06T05:27:18;11.60;99.90
11846;DHT22;5982;37.494;-8.758;2022-11-06T05:29:47;11.70;99.90
11846;DHT22;5982;37.494;-8.758;2022-11-06T05:32:15;11.80;99.90
11846;DHT22;5982;37.494;-8.758;2022-11-06T05:34:44;11.90;99.90
11846;DHT22;5982;37.494;-8.758;2022-11-06T05:37:13;11.90;99.90
11846;DHT22;5982;37.494;-8.758;2022-11-06T05:39:41;11.80;99.90
11846;DHT22;5982;37.494;-8.758;2022-11-06T05:42:09;11.90;99.90
11846;DHT22;5982;37.494;-8.758;2022-11-06T05:44:37;11.90;99.90
11846;DHT22;5982;37.494;-8.758;2022-11-06T05:47:06;11.80;99.90
11846;DHT22;5982;37.494;-8.758;2022-11-06T05:49:34;11.80;99.90
11846;DHT22;5982;37.494;-8.758;2022-11-06T05:52:04;11.70;99.90
11846;DHT22;5982;37.494;-8.758;2022-11-06T05:54:32;11.50;99.90
11846;DHT22;5982;37.494;-8.758;2022-11-06T05:57:00;11.50;99.90
11846;DHT22;5982;37.494;-8.758;2022-11-06T05:59:29;11.50;99.90
11846;DHT22;5982;37.494;-8.758;2022-11-06T06:01:57;11.50;99.90
11846;DHT22;5982;37.494;-8.758;2022-11-06T06:04:25;11.60;99.90
11846;DHT22;5982;37.494;-8.758;2022-11-06T06:06:53;11.60;99.90
11846;DHT22;5982;37.494;-8.758;2022-11-06T06:09:23;11.70;99.90
11846;DHT22;5982;37.494;-8.758;2022-11-06T06:11:52;11.80;99.90
11846;DHT22;5982;37.494;-8.758;2022-11-06T06:14:21;11.80;99.90
11846;DHT22;5982;37.494;-8.758;2022-11-06T06:16:49;11.70;99.90
11846;DHT22;5982;37.494;-8.758;2022-11-06T06:19:18;11.70;99.90
11846;DHT22;5982;37.494;-8.758;2022-11-06T06:21:46;11.60;99.90
11846;DHT22;5982;37.494;-8.758;2022-11-06T06:24:15;11.50;99.90
11846;DHT22;5982;37.494;-8.758;2022-11-06T06:26:45;11.40;99.90
11846;DHT22;5982;37.494;-8.758;2022-11-06T06:29:14;11.20;99.90
11846;DHT22;5982;37.494;-8.758;2022-11-06T06:31:43;11.10;99.90
11846;DHT22;5982;37.494;-8.758;2022-11-06T06:34:12;11.00;99.90
11846;DHT22;5982;37.494;-8.758;2022-11-06T06:36:40;11.00;99.90
11846;DHT22;5982;37.494;-8.758;2022-11-06T06:39:08;11.00;99.90
11846;DHT22;5982;37.494;-8.758;2022-11-06T06:41:37;11.10;99.90
11846;DHT22;5982;37.494;-8.758;2022-11-06T06:44:06;11.30;99.90
11846;DHT22;5982;37.494;-8.758;2022-11-06T06:46:35;11.30;99.90
11846;DHT22;5982;37.494;-8.758;2022-11-06T06:49:03;11.30;99.90
11846;DHT22;5982;37.494;-8.758;2022-11-06T06:51:31;11.30;99.90
11846;DHT22;5982;37.494;-8.758;2022-11-06T06:54:00;11.30;99.90
11846;DHT22;5982;37.494;-8.758;2022-11-06T06:56:28;11.30;99.90
11846;DHT22;5982;37.494;-8.758;2022-11-06T06:58:56;11.30;99.90
11846;DHT22;5982;37.494;-8.758;2022-11-06T07:01:26;11.30;99.90
11846;DHT22;5982;37.494;-8.758;2022-11-06T07:03:54;11.30;99.90
11846;DHT22;5982;37.494;-8.758;2022-11-06T07:06:22;11.20;99.90
11846;DHT22;5982;37.494;-8.758;2022-11-06T07:08:54;11.10;99.90
11846;DHT22;5982;37.494;-8.758;2022-11-06T07:11:22;10.90;99.90
11846;DHT22;5982;37.494;-8.758;2022-11-06T07:13:50;11.00;99.90
11846;DHT22;5982;37.494;-8.758;2022-11-06T07:16:19;11.00;99.90
11846;DHT22;5982;37.494;-8.758;2022-11-06T07:18:49;11.00;99.90
11846;DHT22;5982;37.494;-8.758;2022-11-06T07:21:17;11.00;99.90
11846;DHT22;5982;37.494;-8.758;2022-11-06T07:23:45;11.00;99.90
11846;DHT22;5982;37.494;-8.758;2022-11-06T07:26:13;11.30;99.90
11846;DHT22;5982;37.494;-8.758;2022-11-06T07:28:42;11.90;99.90
11846;DHT22;5982;37.494;-8.758;2022-11-06T07:31:10;12.60;99.90
11846;DHT22;5982;37.494;-8.758;2022-11-06T07:33:38;13.10;99.90
11846;DHT22;5982;37.494;-8.758;2022-11-06T07:36:10;13.50;99.90
11846;DHT22;5982;37.494;-8.758;2022-11-06T07:38:40;14.00;99.90
11846;DHT22;5982;37.494;-8.758;2022-11-06T07:41:10;14.30;99.90
11846;DHT22;5982;37.494;-8.758;2022-11-06T07:43:39;14.70;99.90
11846;DHT22;5982;37.494;-8.758;2022-11-06T07:46:09;15.20;99.90
11846;DHT22;5982;37.494;-8.758;2022-11-06T07:48:38;15.60;99.90
11846;DHT22;5982;37.494;-8.758;2022-11-06T07:51:10;16.10;99.90
11846;DHT22;5982;37.494;-8.758;2022-11-06T07:53:39;16.20;99.90
11846;DHT22;5982;37.494;-8.758;2022-11-06T07:56:07;16.40;99.90
11846;DHT22;5982;37.494;-8.758;2022-11-06T07:58:36;16.60;99.90
11846;DHT22;5982;37.494;-8.758;2022-11-06T08:01:05;16.80;99.90
11846;DHT22;5982;37.494;-8.758;2022-11-06T08:03:38;16.80;99.90
11846;DHT22;5982;37.494;-8.758;2022-11-06T08:06:08;16.00;99.90
11846;DHT22;5982;37.494;-8.758;2022-11-06T08:08:36;15.30;99.90
11846;DHT22;5982;37.494;-8.758;2022-11-06T08:11:06;14.90;99.90
11846;DHT22;5982;37.494;-8.758;2022-11-06T08:13:35;14.90;99.90
11846;DHT22;5982;37.494;-8.758;2022-11-06T08:16:05;14.90;99.90
11846;DHT22;5982;37.494;-8.758;2022-11-06T08:18:34;15.00;99.90
11846;DHT22;5982;37.494;-8.758;2022-11-06T08:21:02;15.10;99.90
11846;DHT22;5982;37.494;-8.758;2022-11-06T08:23:34;15.10;99.90
11846;DHT22;5982;37.494;-8.758;2022-11-06T08:26:04;15.30;99.90
11846;DHT22;5982;37.494;-8.758;2022-11-06T08:28:33;15.30;99.90
11846;DHT22;5982;37.494;-8.758;2022-11-06T08:31:03;15.40;99.90
11846;DHT22;5982;37.494;-8.758;2022-11-06T08:33:32;15.50;99.90
11846;DHT22;5982;37.494;-8.758;2022-11-06T08:36:01;15.50;99.90
11846;DHT22;5982;37.494;-8.758;2022-11-06T08:38:30;15.50;99.90
11846;DHT22;5982;37.494;-8.758;2022-11-06T08:41:04;15.60;99.90
11846;DHT22;5982;37.494;-8.758;2022-11-06T08:43:33;15.80;99.90
11846;DHT22;5982;37.494;-8.758;2022-11-06T08:46:02;16.00;99.90
11846;DHT22;5982;37.494;-8.758;2022-11-06T08:48:31;16.20;99.90
11846;DHT22;5982;37.494;-8.758;2022-11-06T08:51:00;16.30;99.90
11846;DHT22;5982;37.494;-8.758;2022-11-06T08:53:28;16.30;99.90
11846;DHT22;5982;37.494;-8.758;2022-11-06T08:55:58;16.50;99.90
11846;DHT22;5982;37.494;-8.758;2022-11-06T08:58:27;16.60;99.90
11846;DHT22;5982;37.494;-8.758;2022-11-06T09:00:55;16.90;99.90
11846;DHT22;5982;37.494;-8.758;2022-11-06T09:03:23;16.90;99.90
11846;DHT22;5982;37.494;-8.758;2022-11-06T09:05:51;17.00;99.90
11846;DHT22;5982;37.494;-8.758;2022-11-06T09:08:20;17.20;99.90
11846;DHT22;5982;37.494;-8.758;2022-11-06T09:10:49;17.40;99.90
11846;DHT22;5982;37.494;-8.758;2022-11-06T09:13:19;17.50;99.90
11846;DHT22;5982;37.494;-8.758;2022-11-06T09:15:47;17.40;99.90
11846;DHT22;5982;37.494;-8.758;2022-11-06T09:18:15;17.50;99.90
11846;DHT22;5982;37.494;-8.758;2022-11-06T09:20:43;17.60;99.90
11846;DHT22;5982;37.494;-8.758;2022-11-06T09:23:11;17.70;99.90
11846;DHT22;5982;37.494;-8.758;2022-11-06T09:25:40;17.80;99.90
11846;DHT22;5982;37.494;-8.758;2022-11-06T09:28:08;18.00;99.90
11846;DHT22;5982;37.494;-8.758;2022-11-06T09:30:38;18.10;99.90
11846;DHT22;5982;37.494;-8.758;2022-11-06T09:33:06;18.10;99.90
11846;DHT22;5982;37.494;-8.758;2022-11-06T09:35:35;18.20;99.90
11846;DHT22;5982;37.494;-8.758;2022-11-06T09:38:05;18.20;99.90
11846;DHT22;5982;37.494;-8.758;2022-11-06T09:40:36;18.30;99.90
11846;DHT22;5982;37.494;-8.758;2022-11-06T09:43:16;18.30;99.90
11846;DHT22;5982;37.494;-8.758;2022-11-06T09:45:51;18.30;99.90
11846;DHT22;5982;37.494;-8.758;2022-11-06T09:48:20;18.50;99.90
11846;DHT22;5982;37.494;-8.758;2022-11-06T09:50:53;18.50;99.90
11846;DHT22;5982;37.494;-8.758;2022-11-06T09:53:24;18.50;99.90
11846;DHT22;5982;37.494;-8.758;2022-11-06T09:55:54;18.30;99.90
11846;DHT22;5982;37.494;-8.758;2022-11-06T09:58:24;18.10;99.90
11846;DHT22;5982;37.494;-8.758;2022-11-06T10:00:56;18.10;99.90
11846;DHT22;5982;37.494;-8.758;2022-11-06T10:03:30;18.30;99.90
11846;DHT22;5982;37.494;-8.758;2022-11-06T10:06:02;18.50;99.90
11846;DHT22;5982;37.494;-8.758;2022-11-06T10:08:30;18.70;99.90
11846;DHT22;5982;37.494;-8.758;2022-11-06T10:11:00;18.80;99.90
11846;DHT22;5982;37.494;-8.758;2022-11-06T10:13:34;18.90;99.90
11846;DHT22;5982;37.494;-8.758;2022-11-06T10:16:13;18.90;99.90
11846;DHT22;5982;37.494;-8.758;2022-11-06T10:18:50;18.90;99.90
11846;DHT22;5982;37.494;-8.758;2022-11-06T10:21:23;19.00;99.90
11846;DHT22;5982;37.494;-8.758;2022-11-06T10:23:52;19.00;99.90
11846;DHT22;5982;37.494;-8.758;2022-11-06T10:26:27;19.00;99.90
11846;DHT22;5982;37.494;-8.758;2022-11-06T10:29:03;19.00;99.90
11846;DHT22;5982;37.494;-8.758;2022-11-06T10:32:02;19.10;99.90
11846;DHT22;5982;37.494;-8.758;2022-11-06T10:34:40;19.10;99.90
11846;DHT22;5982;37.494;-8.758;2022-11-06T10:37:10;19.20;99.90
11846;DHT22;5982;37.494;-8.758;2022-11-06T10:39:40;19.30;99.90
11846;DHT22;5982;37.494;-8.758;2022-11-06T10:42:09;19.20;99.90
11846;DHT22;5982;37.494;-8.758;2022-11-06T10:44:41;19.20;99.90
11846;DHT22;5982;37.494;-8.758;2022-11-06T10:47:17;19.30;99.90
11846;DHT22;5982;37.494;-8.758;2022-11-06T10:49:47;19.50;99.90
11846;DHT22;5982;37.494;-8.758;2022-11-06T10:55:17;19.40;99.90
11846;DHT22;5982;37.494;-8.758;2022-11-06T10:58:02;19.50;99.90
11846;DHT22;5982;37.494;-8.758;2022-11-06T11:00:31;19.70;99.90
11846;DHT22;5982;37.494;-8.758;2022-11-06T11:03:01;19.70;99.90
11846;DHT22;5982;37.494;-8.758;2022-11-06T11:05:36;19.80;99.90
11846;DHT22;5982;37.494;-8.758;2022-11-06T11:08:06;19.80;99.90
11846;DHT22;5982;37.494;-8.758;2022-11-06T11:10:39;19.90;99.90
11846;DHT22;5982;37.494;-8.758;2022-11-06T11:13:09;19.90;99.90
11846;DHT22;5982;37.494;-8.758;2022-11-06T11:15:46;20.00;99.90
11846;DHT22;5982;37.494;-8.758;2022-11-06T11:18:16;20.00;99.90
11846;DHT22;5982;37.494;-8.758;2022-11-06T11:20:45;20.10;99.90
11846;DHT22;5982;37.494;-8.758;2022-11-06T11:23:14;20.30;99.90
11846;DHT22;5982;37.494;-8.758;2022-11-06T11:25:44;20.30;99.90
11846;DHT22;5982;37.494;-8.758;2022-11-06T11:30:59;20.40;99.90
11846;DHT22;5982;37.494;-8.758;2022-11-06T11:33:32;20.50;99.90
11846;DHT22;5982;37.494;-8.758;2022-11-06T11:36:00;20.50;99.90
11846;DHT22;5982;37.494;-8.758;2022-11-06T11:38:30;20.60;99.90
11846;DHT22;5982;37.494;-8.758;2022-11-06T11:41:04;20.70;99.90
11846;DHT22;5982;37.494;-8.758;2022-11-06T11:43:33;20.70;99.90
11846;DHT22;5982;37.494;-8.758;2022-11-06T11:46:02;20.70;99.90
11846;DHT22;5982;37.494;-8.758;2022-11-06T11:48:42;20.80;99.90
11846;DHT22;5982;37.494;-8.758;2022-11-06T11:51:24;20.90;99.90
11846;DHT22;5982;37.494;-8.758;2022-11-06T11:53:55;21.00;99.90
11846;DHT22;5982;37.494;-8.758;2022-11-06T11:56:24;21.10;99.90
11846;DHT22;5982;37.494;-8.758;2022-11-06T11:58:54;21.00;99.90
11846;DHT22;5982;37.494;-8.758;2022-11-06T12:01:29;21.00;99.90
11846;DHT22;5982;37.494;-8.758;2022-11-06T12:04:14;21.20;99.90
11846;DHT22;5982;37.494;-8.758;2022-11-06T12:06:51;21.20;99.90
11846;DHT22;5982;37.494;-8.758;2022-11-06T12:09:22;21.20;99.90
11846;DHT22;5982;37.494;-8.758;2022-11-06T12:11:50;21.30;99.90
11846;DHT22;5982;37.494;-8.758;2022-11-06T12:14:32;21.40;99.90
11846;DHT22;5982;37.494;-8.758;2022-11-06T12:17:07;21.40;99.90
11846;DHT22;5982;37.494;-8.758;2022-11-06T12:19:42;21.50;99.90
11846;DHT22;5982;37.494;-8.758;2022-11-06T12:22:14;21.50;99.90
11846;DHT22;5982;37.494;-8.758;2022-11-06T12:24:46;21.60;99.90
11846;DHT22;5982;37.494;-8.758;2022-11-06T12:27:18;21.60;99.90
11846;DHT22;5982;37.494;-8.758;2022-11-06T12:29:50;21.50;99.90
11846;DHT22;5982;37.494;-8.758;2022-11-06T12:32:23;21.60;99.90
11846;DHT22;5982;37.494;-8.758;2022-11-06T12:34:57;21.60;99.90
11846;DHT22;5982;37.494;-8.758;2022-11-06T12:37:35;21.60;99.90
11846;DHT22;5982;37.494;-8.758;2022-11-06T12:40:11;21.60;99.90
11846;DHT22;5982;37.494;-8.758;2022-11-06T12:42:46;21.50;99.90
11846;DHT22;5982;37.494;-8.758;2022-11-06T12:45:21;21.50;99.90
11846;DHT22;5982;37.494;-8.758;2022-11-06T12:47:56;21.50;99.90
11846;DHT22;5982;37.494;-8.758;2022-11-06T12:50:32;21.50;99.90
11846;DHT22;5982;37.494;-8.758;2022-11-06T12:53:09;21.40;99.90
11846;DHT22;5982;37.494;-8.758;2022-11-06T12:55:45;21.40;99.90
11846;DHT22;5982;37.494;-8.758;2022-11-06T12:58:34;21.40;99.90
11846;DHT22;5982;37.494;-8.758;2022-11-06T13:01:14;21.40;99.90
11846;DHT22;5982;37.494;-8.758;2022-11-06T13:03:52;21.60;99.90
11846;DHT22;5982;37.494;-8.758;2022-11-06T13:09:51;21.60;99.90
11846;DHT22;5982;37.494;-8.758;2022-11-06T13:12:26;21.60;99.90
11846;DHT22;5982;37.494;-8.758;2022-11-06T13:15:02;21.60;99.90
11846;DHT22;5982;37.494;-8.758;2022-11-06T13:17:36;21.60;99.90
11846;DHT22;5982;37.494;-8.758;2022-11-06T13:20:11;21.60;99.90
11846;DHT22;5982;37.494;-8.758;2022-11-06T13:22:43;21.70;99.90
11846;DHT22;5982;37.494;-8.758;2022-11-06T13:25:16;21.60;99.90
11846;DHT22;5982;37.494;-8.758;2022-11-06T13:27:48;21.60;99.90
11846;DHT22;5982;37.494;-8.758;2022-11-06T13:30:19;21.60;99.90
11846;DHT22;5982;37.494;-8.758;2022-11-06T13:33:01;21.60;99.90
11846;DHT22;5982;37.494;-8.758;2022-11-06T13:35:33;21.60;99.90
11846;DHT22;5982;37.494;-8.758;2022-11-06T13:38:06;21.60;99.90
11846;DHT22;5982;37.494;-8.758;2022-11-06T13:40:38;21.50;99.90
11846;DHT22;5982;37.494;-8.758;2022-11-06T13:43:09;21.60;99.90
11846;DHT22;5982;37.494;-8.758;2022-11-06T13:45:42;21.50;99.90
11846;DHT22;5982;37.494;-8.758;2022-11-06T13:48:16;21.60;99.90
11846;DHT22;5982;37.494;-8.758;2022-11-06T13:50:51;21.50;99.90
11846;DHT22;5982;37.494;-8.758;2022-11-06T13:53:25;21.50;99.90
11846;DHT22;5982;37.494;-8.758;2022-11-06T13:55:58;21.50;99.90
11846;DHT22;5982;37.494;-8.758;2022-11-06T14:01:28;21.60;99.90
11846;DHT22;5982;37.494;-8.758;2022-11-06T14:07:20;21.70;99.90
11846;DHT22;5982;37.494;-8.758;2022-11-06T14:09:50;21.70;99.90
11846;DHT22;5982;37.494;-8.758;2022-11-06T14:12:19;21.70;99.90
11846;DHT22;5982;37.494;-8.758;2022-11-06T14:14:48;21.60;99.90
11846;DHT22;5982;37.494;-8.758;2022-11-06T14:17:20;21.60;99.90
11846;DHT22;5982;37.494;-8.758;2022-11-06T14:20:02;21.70;99.90
11846;DHT22;5982;37.494;-8.758;2022-11-06T14:22:32;21.70;99.90
11846;DHT22;5982;37.494;-8.758;2022-11-06T14:25:43;21.60;99.90
11846;DHT22;5982;37.494;-8.758;2022-11-06T14:28:27;21.60;99.90
11846;DHT22;5982;37.494;-8.758;2022-11-06T14:30:56;21.70;99.90
11846;DHT22;5982;37.494;-8.758;2022-11-06T14:36:28;21.70;99.90
11846;DHT22;5982;37.494;-8.758;2022-11-06T14:39:00;21.70;99.90
11846;DHT22;5982;37.494;-8.758;2022-11-06T14:47:24;21.70;99.90
11846;DHT22;5982;37.494;-8.758;2022-11-06T14:49:55;21.70;99.90
11846;DHT22;5982;37.494;-8.758;2022-11-06T14:52:24;21.70;99.90
11846;DHT22;5982;37.494;-8.758;2022-11-06T14:54:53;21.70;99.90
11846;DHT22;5982;37.494;-8.758;2022-11-06T14:57:34;21.70;99.90
11846;DHT22;5982;37.494;-8.758;2022-11-06T15:00:06;21.70;99.90
11846;DHT22;5982;37.494;-8.758;2022-11-06T15:02:37;21.70;99.90
11846;DHT22;5982;37.494;-8.758;2022-11-06T15:05:06;21.80;99.90
11846;DHT22;5982;37.494;-8.758;2022-11-06T15:07:51;21.80;99.90
11846;DHT22;5982;37.494;-8.758;2022-11-06T15:13:24;21.90;99.90
11846;DHT22;5982;37.494;-8.758;2022-11-06T15:15:55;21.90;99.90
11846;DHT22;5982;37.494;-8.758;2022-11-06T15:18:27;21.90;99.90
11846;DHT22;5982;37.494;-8.758;2022-11-06T15:20:59;21.90;99.90
11846;DHT22;5982;37.494;-8.758;2022-11-06T15:23:30;21.80;99.90
11846;DHT22;5982;37.494;-8.758;2022-11-06T15:26:02;21.60;99.90
11846;DHT22;5982;37.494;-8.758;2022-11-06T15:28:37;21.50;99.90
11846;DHT22;5982;37.494;-8.758;2022-11-06T15:31:07;21.40;99.90
11846;DHT22;5982;37.494;-8.758;2022-11-06T15:33:42;21.30;99.90
11846;DHT22;5982;37.494;-8.758;2022-11-06T15:36:14;21.30;99.90
11846;DHT22;5982;37.494;-8.758;2022-11-06T15:38:43;21.20;99.90
11846;DHT22;5982;37.494;-8.758;2022-11-06T15:41:12;21.00;99.90
11846;DHT22;5982;37.494;-8.758;2022-11-06T15:43:44;20.90;99.90
11846;DHT22;5982;37.494;-8.758;2022-11-06T15:46:14;20.80;99.90
11846;DHT22;5982;37.494;-8.758;2022-11-06T15:48:44;20.70;99.90
11846;DHT22;5982;37.494;-8.758;2022-11-06T15:51:18;20.70;99.90
11846;DHT22;5982;37.494;-8.758;2022-11-06T15:53:50;20.60;99.90
11846;DHT22;5982;37.494;-8.758;2022-11-06T15:56:19;20.60;99.90
11846;DHT22;5982;37.494;-8.758;2022-11-06T16:01:34;20.40;99.90
11846;DHT22;5982;37.494;-8.758;2022-11-06T16:04:04;20.30;99.90
11846;DHT22;5982;37.494;-8.758;2022-11-06T16:06:33;20.20;99.90
11846;DHT22;5982;37.494;-8.758;2022-11-06T16:09:01;20.00;99.90
11846;DHT22;5982;37.494;-8.758;2022-11-06T16:11:30;19.90;99.90
11846;DHT22;5982;37.494;-8.758;2022-11-06T16:13:58;19.90;99.90
11846;DHT22;5982;37.494;-8.758;2022-11-06T16:16:30;19.90;99.90
11846;DHT22;5982;37.494;-8.758;2022-11-06T16:19:00;19.80;99.90
11846;DHT22;5982;37.494;-8.758;2022-11-06T16:21:29;19.70;99.90
11846;DHT22;5982;37.494;-8.758;2022-11-06T16:23:59;19.60;99.90
11846;DHT22;5982;37.494;-8.758;2022-11-06T16:26:34;19.60;99.90
11846;DHT22;5982;37.494;-8.758;2022-11-06T16:29:07;19.50;99.90